Time;durP1;ratioP1;P1;durP2;ratioP2;P2;SDS_P1;SDS_P2;PMS_P1;PMS_P2;Temp;Humidity;BMP_temperature;BMP_pressure;BME280_temperature;BME280_humidity;BME280_pressure;Samples;Min_cycle;Max_cycle;Signal;HPM_P1;HPM_P2
2020/12/15 00:02:12;;;;;;;160.90;70.85;;;;;;;-4.05;84.15;98384.75;1785904;80;20896;-81
2020/12/15 00:04:37;;;;;;;152.25;69.95;;;;;;;-4.15;84.07;98383.36;1819876;78;22189;-77
2020/12/15 00:07:03;;;;;;;160.60;69.58;;;;;;;-4.13;84.44;98387.97;1819726;78;21298;-80
2020/12/15 00:09:29;;;;;;;161.52;71.05;;;;;;;-4.15;84.55;98384.68;1785882;80;20955;-80
2020/12/15 00:11:57;;;;;;;165.70;67.92;;;;;;;-4.18;84.37;98383.22;1780911;80;21634;-77
2020/12/15 00:14:22;;;;;;;153.57;68.97;;;;;;;-4.15;83.94;98378.06;1788034;78;21161;-77
2020/12/15 00:16:48;;;;;;;149.87;66.28;;;;;;;-4.22;83.74;98381.09;1787598;78;21521;-77
2020/12/15 00:19:14;;;;;;;170.15;75.50;;;;;;;-4.26;83.50;98381.95;1785930;80;21186;-77
2020/12/15 00:21:43;;;;;;;163.22;68.65;;;;;;;-4.43;83.00;98390.50;1819771;78;21109;-77
2020/12/15 00:24:09;;;;;;;150.03;70.20;;;;;;;-4.36;83.43;98386.63;1819973;78;26360;-79
2020/12/15 00:26:35;;;;;;;148.35;62.40;;;;;;;-4.35;83.61;98393.09;1819790;78;21042;-76
2020/12/15 00:29:01;;;;;;;150.12;64.42;;;;;;;-4.33;83.82;98400.85;1786022;80;21277;-76
2020/12/15 00:31:34;;;;;;;144.68;61.90;;;;;;;-4.31;84.30;98394.38;1787902;78;21277;-79
2020/12/15 00:34:00;;;;;;;131.30;55.60;;;;;;;-4.28;84.91;98398.48;1785804;80;21186;-80
2020/12/15 00:36:26;;;;;;;154.15;60.40;;;;;;;-4.21;84.70;98398.61;1819815;78;21035;-80
2020/12/15 00:38:52;;;;;;;134.75;61.80;;;;;;;-4.17;84.57;98402.56;1754960;80;21030;-77
2020/12/15 00:41:18;;;;;;;129.82;56.45;;;;;;;-4.24;84.42;98398.97;1787826;78;21002;-80
2020/12/15 00:43:44;;;;;;;118.02;45.43;;;;;;;-4.20;84.50;98389.16;1755086;80;21480;-77
2020/12/15 00:46:16;;;;;;;117.33;57.95;;;;;;;-4.30;84.22;98393.87;1819734;78;20994;-77
2020/12/15 00:48:42;;;;;;;102.22;40.48;;;;;;;-4.31;84.57;98382.97;1819774;78;21090;-77
2020/12/15 00:51:13;;;;;;;133.37;58.33;;;;;;;-4.28;84.25;98379.45;1785874;80;20904;-77
2020/12/15 00:53:39;;;;;;;125.58;57.62;;;;;;;-4.48;84.42;98383.58;1819835;78;21015;-78
2020/12/15 00:56:05;;;;;;;123.75;57.17;;;;;;;-4.59;84.07;98377.37;1785933;80;21415;-78
2020/12/15 00:58:31;;;;;;;139.72;57.30;;;;;;;-4.61;83.54;98378.05;1756660;80;21623;-80
2020/12/15 01:00:57;;;;;;;140.47;59.42;;;;;;;-4.64;83.43;98378.38;1785382;79;20911;-81
2020/12/15 01:03:22;;;;;;;133.00;60.60;;;;;;;-4.73;83.72;98380.25;1799245;79;20979;-81
2020/12/15 01:05:48;;;;;;;138.62;62.20;;;;;;;-4.74;83.44;98388.36;1819853;78;20999;-81
2020/12/15 01:08:14;;;;;;;125.58;51.35;;;;;;;-4.70;83.68;98388.33;1787753;78;21288;-80
2020/12/15 01:10:40;;;;;;;120.37;56.83;;;;;;;-4.73;83.33;98387.36;1785876;80;20928;-78
2020/12/15 01:13:06;;;;;;;123.42;52.45;;;;;;;-4.82;83.47;98392.69;1819778;78;20923;-77
2020/12/15 01:15:32;;;;;;;118.72;52.93;;;;;;;-4.77;83.75;98390.04;1785861;80;20988;-81
2020/12/15 01:17:58;;;;;;;94.80;44.27;;;;;;;-4.72;84.35;98389.00;1787890;78;21063;-77
2020/12/15 01:20:23;;;;;;;119.70;54.55;;;;;;;-4.69;84.22;98389.50;1785874;80;21190;-80
2020/12/15 01:22:50;;;;;;;116.75;47.98;;;;;;;-4.69;84.02;98390.82;1819678;78;20998;-77
2020/12/15 01:25:15;;;;;;;106.17;44.63;;;;;;;-4.61;83.85;98393.42;1785852;80;21071;-79
2020/12/15 01:27:41;;;;;;;94.60;42.62;;;;;;;-4.60;83.65;98389.77;1819752;78;20912;-80
2020/12/15 01:30:07;;;;;;;93.07;42.70;;;;;;;-4.61;83.73;98384.67;1785840;80;20916;-77
2020/12/15 01:32:34;;;;;;;104.45;44.03;;;;;;;-4.73;84.45;98392.65;1819778;78;21930;-80
2020/12/15 01:35:00;;;;;;;104.32;44.05;;;;;;;-4.73;84.84;98384.22;1819817;78;21161;-77
2020/12/15 01:37:25;;;;;;;93.55;44.73;;;;;;;-4.66;84.72;98379.06;1785789;80;21032;-80
2020/12/15 01:39:51;;;;;;;89.80;44.33;;;;;;;-4.66;84.19;98377.23;1787759;78;20911;-78
2020/12/15 01:42:17;;;;;;;93.50;43.05;;;;;;;-4.71;84.55;98371.64;1819809;78;20904;-78
2020/12/15 01:44:43;;;;;;;87.05;39.00;;;;;;;-4.65;84.32;98373.59;1819694;78;21358;-78
2020/12/15 01:47:09;;;;;;;92.10;40.58;;;;;;;-4.60;84.37;98373.91;1785741;80;20912;-80
2020/12/15 01:49:35;;;;;;;98.00;43.05;;;;;;;-4.62;84.24;98371.91;1819779;78;21126;-80
2020/12/15 01:52:02;;;;;;;104.17;46.37;;;;;;;-4.61;84.32;98373.59;1785793;80;21154;-79
2020/12/15 01:54:28;;;;;;;91.50;43.70;;;;;;;-4.62;84.37;98374.55;1787896;78;21018;-78
2020/12/15 01:56:55;;;;;;;88.92;40.80;;;;;;;-4.64;84.00;98370.45;1785966;80;21179;-80
2020/12/15 01:59:22;;;;;;;95.62;43.42;;;;;;;-4.63;83.74;98375.56;1788055;78;21114;-80
2020/12/15 02:01:48;;;;;;;82.85;38.10;;;;;;;-4.73;83.88;98372.81;1756664;80;21164;-80
2020/12/15 02:04:14;;;;;;;94.10;41.68;;;;;;;-4.65;84.26;98374.09;1819923;78;21006;-78
2020/12/15 02:06:41;;;;;;;92.97;40.45;;;;;;;-4.62;84.13;98369.27;1787611;80;21098;-80
2020/12/15 02:09:07;;;;;;;95.25;42.67;;;;;;;-4.70;83.53;98368.02;1819841;78;21983;-78
2020/12/15 02:11:33;;;;;;;101.78;47.15;;;;;;;-4.76;82.84;98374.50;1755025;80;20900;-78
2020/12/15 02:13:58;;;;;;;92.53;41.42;;;;;;;-4.78;83.39;98372.53;1788019;78;20892;-78
2020/12/15 02:16:24;;;;;;;83.35;36.55;;;;;;;-4.71;83.63;98365.52;1786019;80;20987;-80
2020/12/15 02:18:50;;;;;;;71.12;33.23;;;;;;;-4.80;83.35;98366.07;1819912;78;20931;-81
2020/12/15 02:21:16;;;;;;;74.65;35.45;;;;;;;-4.88;83.62;98366.11;1787911;78;21189;-80
2020/12/15 02:23:42;;;;;;;67.05;31.17;;;;;;;-4.91;83.71;98356.72;1819799;78;20983;-80
2020/12/15 02:26:09;;;;;;;83.05;38.65;;;;;;;-5.00;84.30;98357.75;1819972;78;20940;-80
2020/12/15 02:28:35;;;;;;;93.07;37.08;;;;;;;-5.03;85.22;98362.58;1729965;80;21078;-80
2020/12/15 02:31:01;;;;;;;78.40;37.42;;;;;;;-5.04;84.06;98355.61;1819962;78;20916;-78
2020/12/15 02:33:27;;;;;;;71.77;31.75;;;;;;;-5.17;84.89;98360.97;1785874;80;21330;-77
2020/12/15 02:35:52;;;;;;;86.87;37.98;;;;;;;-5.14;84.75;98356.65;1788054;78;20880;-80
2020/12/15 02:38:18;;;;;;;84.47;35.43;;;;;;;-5.04;86.05;98355.14;1785939;80;21078;-80
2020/12/15 02:40:44;;;;;;;86.75;38.45;;;;;;;-4.95;85.79;98354.11;1819918;78;20900;-78
2020/12/15 02:43:10;;;;;;;73.02;34.92;;;;;;;-4.93;84.95;98355.25;1785947;80;21013;-78
2020/12/15 02:45:36;;;;;;;74.67;34.95;;;;;;;-4.92;84.38;98357.72;1819891;78;21466;-78
2020/12/15 02:48:03;;;;;;;88.67;36.85;;;;;;;-4.93;83.80;98352.11;1785852;80;21163;-80
2020/12/15 02:50:28;;;;;;;94.70;39.25;;;;;;;-4.98;83.57;98351.79;1781015;80;21051;-78
2020/12/15 02:52:54;;;;;;;103.67;44.98;;;;;;;-5.15;82.54;98354.19;1819857;78;21002;-80
2020/12/15 02:55:20;;;;;;;83.35;36.50;;;;;;;-5.19;82.76;98356.36;1819965;78;21063;-78
2020/12/15 02:57:50;;;;;;;85.65;39.18;;;;;;;-5.33;82.43;98349.14;1819873;78;21120;-80
2020/12/15 03:00:17;;;;;;;78.25;38.53;;;;;;;-5.30;83.21;98357.20;1784822;80;21473;-80
2020/12/15 03:02:43;;;;;;;87.85;41.80;;;;;;;-5.42;82.64;98358.08;1788000;78;21074;-77
2020/12/15 03:05:09;;;;;;;87.27;34.65;;;;;;;-5.53;82.43;98358.45;1819837;78;20841;-79
2020/12/15 03:07:35;;;;;;;75.08;32.03;;;;;;;-5.48;82.69;98357.44;1819794;78;20912;-77
2020/12/15 03:10:01;;;;;;;85.25;36.85;;;;;;;-5.55;83.38;98353.84;1785921;80;21193;-79
2020/12/15 03:12:28;;;;;;;78.28;36.83;;;;;;;-5.52;83.00;98360.92;1819823;78;21153;-79
2020/12/15 03:14:54;;;;;;;88.17;38.23;;;;;;;-5.55;82.97;98355.17;1785899;80;21087;-80
2020/12/15 03:17:20;;;;;;;72.95;35.40;;;;;;;-5.56;83.34;98356.13;1819852;78;20943;-78
2020/12/15 03:19:46;;;;;;;84.35;35.80;;;;;;;-5.55;83.41;98356.48;1819823;78;20867;-79
2020/12/15 03:22:12;;;;;;;78.95;35.28;;;;;;;-5.52;83.77;98353.00;1819971;78;21474;-80
2020/12/15 03:24:38;;;;;;;63.48;30.43;;;;;;;-5.44;84.16;98353.47;1755094;80;21238;-77
2020/12/15 03:27:03;;;;;;;60.75;26.85;;;;;;;-5.36;84.26;98353.45;1819842;78;20884;-80
2020/12/15 03:29:29;;;;;;;64.80;28.23;;;;;;;-5.31;84.58;98347.64;1785803;80;20920;-77
2020/12/15 03:31:56;;;;;;;66.75;31.10;;;;;;;-5.24;84.51;98351.25;1780997;80;20936;-77
2020/12/15 03:34:22;;;;;;;61.05;28.70;;;;;;;-5.19;84.25;98352.89;1788052;78;21164;-77
2020/12/15 03:36:47;;;;;;;68.57;30.55;;;;;;;-5.25;83.66;98344.32;1819748;78;20988;-77
2020/12/15 03:39:13;;;;;;;70.08;32.08;;;;;;;-5.18;83.53;98350.57;1785927;80;21637;-77
2020/12/15 03:41:39;;;;;;;64.67;31.60;;;;;;;-5.16;83.54;98342.79;1762031;78;20932;-77
2020/12/15 03:44:05;;;;;;;62.17;29.30;;;;;;;-5.13;83.75;98341.61;1785922;80;21084;-79
2020/12/15 03:46:31;;;;;;;58.28;25.27;;;;;;;-5.09;84.19;98336.33;1780941;80;21166;-80
2020/12/15 03:48:57;;;;;;;46.18;24.10;;;;;;;-5.06;83.69;98340.44;1761962;78;21047;-79
2020/12/15 03:54:06;;;;;;;53.87;24.25;;;;;;;-5.04;83.47;98332.68;1841698;77;23335;-78
2020/12/15 03:56:32;;;;;;;61.75;25.12;;;;;;;-5.17;84.59;98328.44;1777578;79;20893;-76
2020/12/15 03:58:58;;;;;;;62.78;28.05;;;;;;;-5.04;84.25;98334.00;1773792;80;21393;-78
2020/12/15 04:01:24;;;;;;;60.38;28.70;;;;;;;-5.02;84.31;98339.11;1773644;80;20916;-76
2020/12/15 04:03:49;;;;;;;61.15;28.45;;;;;;;-5.03;84.04;98342.25;1773638;81;21011;-78
2020/12/15 04:06:15;;;;;;;60.23;30.10;;;;;;;-4.97;83.93;98342.86;1773727;81;20904;-78
2020/12/15 04:08:41;;;;;;;58.10;28.38;;;;;;;-4.97;83.75;98342.03;1773764;80;21597;-76
2020/12/15 04:11:07;;;;;;;68.00;29.95;;;;;;;-4.98;83.86;98343.86;1773644;80;21614;-78
2020/12/15 04:13:33;;;;;;;51.00;26.07;;;;;;;-4.99;83.69;98346.68;1741076;81;20936;-78
2020/12/15 04:15:59;;;;;;;56.33;23.42;;;;;;;-4.98;83.25;98347.83;1773636;81;20940;-76
2020/12/15 04:18:25;;;;;;;63.78;27.45;;;;;;;-4.97;83.09;98344.68;1773603;81;20908;-76
2020/12/15 04:20:51;;;;;;;70.75;29.57;;;;;;;-5.12;82.54;98340.64;1773571;80;21026;-78
2020/12/15 04:23:18;;;;;;;121.25;53.05;;;;;;;-5.19;82.73;98336.54;1773573;81;21293;-76
2020/12/15 04:25:53;;;;;;;83.45;41.23;;;;;;;-5.22;82.64;98332.90;1773595;80;21126;-78
2020/12/15 04:28:19;;;;;;;66.72;32.42;;;;;;;-5.25;82.60;98337.72;1773586;80;21159;-77
2020/12/15 04:30:45;;;;;;;62.73;28.32;;;;;;;-5.27;82.80;98339.22;1773517;81;20893;-79
2020/12/15 04:33:12;;;;;;;73.75;32.35;;;;;;;-5.25;82.90;98337.22;1773451;81;20950;-77
2020/12/15 04:35:38;;;;;;;94.17;38.90;;;;;;;-5.32;82.61;98336.25;1773569;80;21418;-80
2020/12/15 04:38:04;;;;;;;104.47;48.33;;;;;;;-5.39;82.28;98341.88;1773533;81;20865;-77
2020/12/15 04:40:35;;;;;;;96.50;49.58;;;;;;;-5.37;82.54;98347.84;1773615;80;21135;-77
2020/12/15 04:43:01;;;;;;;63.17;28.65;;;;;;;-5.43;82.26;98348.02;1773632;81;21159;-80
2020/12/15 04:45:28;;;;;;;62.03;30.17;;;;;;;-5.46;82.39;98348.87;1741013;81;21618;-78
2020/12/15 04:48:03;;;;;;;67.15;30.68;;;;;;;-5.57;82.53;98350.03;1773528;80;21178;-80
2020/12/15 04:50:35;;;;;;;54.00;27.25;;;;;;;-5.57;82.62;98343.92;1769986;79;21146;-79
2020/12/15 04:53:08;;;;;;;65.70;32.95;;;;;;;-5.60;83.34;98341.63;1773512;80;21040;-79
2020/12/15 04:55:34;;;;;;;49.98;21.42;;;;;;;-5.63;84.55;98344.12;1773588;81;21039;-80
2020/12/15 04:58:00;;;;;;;67.90;29.42;;;;;;;-5.52;84.26;98346.39;1766322;81;21126;-77
2020/12/15 05:00:26;;;;;;;66.02;30.05;;;;;;;-5.51;84.73;98341.94;1773631;80;21435;-78
2020/12/15 05:02:52;;;;;;;75.15;32.63;;;;;;;-5.47;84.49;98344.08;1773596;81;21083;-80
2020/12/15 05:05:20;;;;;;;52.35;22.90;;;;;;;-5.48;84.16;98343.73;1765872;80;20992;-80
2020/12/15 05:07:46;;;;;;;92.17;37.63;;;;;;;-5.43;83.96;98342.73;1772991;81;21032;-77
2020/12/15 05:10:13;;;;;;;82.57;33.98;;;;;;;-5.46;83.57;98351.51;1773036;80;20985;-79
2020/12/15 05:12:40;;;;;;;112.25;42.78;;;;;;;-5.47;83.30;98349.83;1740263;81;22814;-79
2020/12/15 05:15:12;;;;;;;102.00;44.35;;;;;;;-5.57;83.72;98350.53;1773042;80;21166;-77
2020/12/15 05:17:39;;;;;;;106.85;44.13;;;;;;;-5.51;83.97;98352.00;1772727;79;21182;-79
2020/12/15 05:20:06;;;;;;;108.22;46.30;;;;;;;-5.48;84.52;98358.75;1740973;81;21032;-79
2020/12/15 05:22:44;;;;;;;102.62;47.35;;;;;;;-5.57;82.47;98347.89;1773028;80;21043;-77
2020/12/15 05:25:30;;;;;;;107.70;47.83;;;;;;;-5.57;82.31;98354.48;1773191;80;21928;-78
2020/12/15 05:27:59;;;;;;;103.70;48.85;;;;;;;-5.62;82.31;98349.73;1772966;81;21167;-77
2020/12/15 05:30:25;;;;;;;98.20;49.60;;;;;;;-5.68;82.28;98351.72;1773153;80;21040;-78
2020/12/15 05:32:54;;;;;;;93.80;44.73;;;;;;;-5.74;82.87;98351.06;1740367;81;21143;-80
2020/12/15 05:35:31;;;;;;;89.97;41.90;;;;;;;-5.74;82.89;98354.52;1740655;81;21146;-80
2020/12/15 05:37:58;;;;;;;99.03;45.35;;;;;;;-5.75;83.26;98358.66;1772992;80;21607;-77
2020/12/15 05:40:24;;;;;;;99.05;45.83;;;;;;;-5.83;82.70;98353.39;1772894;80;21146;-79
2020/12/15 05:42:57;;;;;;;105.80;51.00;;;;;;;-5.85;82.26;98352.73;1772981;81;21155;-77
2020/12/15 05:45:23;;;;;;;98.00;46.23;;;;;;;-5.84;82.49;98354.38;1773007;80;21547;-80
2020/12/15 05:47:49;;;;;;;102.78;49.65;;;;;;;-5.86;82.42;98360.33;1772947;81;21091;-80
2020/12/15 05:50:21;;;;;;;101.82;44.35;;;;;;;-5.94;82.77;98354.59;1773043;80;21458;-79
2020/12/15 05:53:04;;;;;;;78.55;33.63;;;;;;;-5.84;83.51;98360.98;1770826;80;21111;-79
2020/12/15 05:55:30;;;;;;;88.42;41.40;;;;;;;-5.71;83.27;98366.59;1759934;80;21159;-78
2020/12/15 05:57:57;;;;;;;83.58;36.75;;;;;;;-5.72;82.87;98362.30;1762386;81;21574;-77
2020/12/15 06:00:28;;;;;;;71.35;33.38;;;;;;;-5.81;82.78;98365.91;1762432;81;21103;-77
2020/12/15 06:03:02;;;;;;;75.03;38.00;;;;;;;-5.79;82.92;98367.91;1762492;80;21511;-77
2020/12/15 06:05:32;;;;;;;80.57;44.08;;;;;;;-5.87;82.95;98364.79;1762406;81;21128;-79
2020/12/15 06:07:59;;;;;;;70.95;33.65;;;;;;;-5.85;84.50;98372.04;1762422;81;21150;-77
2020/12/15 06:10:26;;;;;;;76.17;35.83;;;;;;;-5.72;83.80;98373.69;1762365;81;21024;-77
2020/12/15 06:12:54;;;;;;;68.57;31.82;;;;;;;-5.69;83.80;98375.98;1738560;81;21681;-80
2020/12/15 06:15:20;;;;;;;77.50;34.88;;;;;;;-5.64;83.99;98372.81;1762374;80;21187;-79
2020/12/15 06:17:48;;;;;;;69.75;32.93;;;;;;;-5.65;83.94;98362.43;1738523;81;20909;-80
2020/12/15 06:20:19;;;;;;;81.42;40.63;;;;;;;-5.50;83.81;98372.63;1761941;80;21067;-77
2020/12/15 06:22:42;;;;;;;67.00;31.57;;;;;;;-5.48;84.17;98377.23;1762104;81;21738;-79
2020/12/15 06:25:08;;;;;;;69.72;31.65;;;;;;;-5.39;83.91;98381.00;1762332;80;20977;-79
2020/12/15 06:27:35;;;;;;;84.00;35.78;;;;;;;-5.38;83.56;98376.58;1762312;81;21195;-80
2020/12/15 06:30:04;;;;;;;67.65;33.38;;;;;;;-5.40;83.33;98382.50;1762321;80;21099;-79
2020/12/15 06:32:29;;;;;;;74.15;33.53;;;;;;;-5.42;83.24;98387.96;1763165;78;21147;-79
2020/12/15 06:34:56;;;;;;;98.97;43.45;;;;;;;-5.46;83.17;98384.02;1738638;81;21548;-79
2020/12/15 06:37:24;;;;;;;80.42;35.08;;;;;;;-5.55;83.15;98383.72;1762334;81;21659;-77
2020/12/15 06:40:20;;;;;;;99.07;41.20;;;;;;;-5.56;82.55;98385.18;1762535;80;21428;-80
2020/12/15 06:42:53;;;;;;;121.72;51.95;;;;;;;-5.81;81.45;98380.44;1675797;84;21170;-79
2020/12/15 06:45:23;;;;;;;111.22;46.20;;;;;;;-5.91;82.88;98382.46;1636652;86;21072;-77
2020/12/15 06:48:02;;;;;;;101.92;42.27;;;;;;;-5.84;83.44;98385.56;1659807;85;21669;-78
2020/12/15 06:50:27;;;;;;;148.78;58.55;;;;;;;-5.77;83.35;98382.59;1658946;85;21071;-79
2020/12/15 06:52:53;;;;;;;131.78;56.73;;;;;;;-5.81;82.90;98375.16;1669331;85;21451;-79
2020/12/15 06:55:29;;;;;;;154.90;64.05;;;;;;;-5.75;83.12;98378.45;1659790;84;20940;-79
2020/12/15 06:58:00;;;;;;;132.67;57.08;;;;;;;-5.77;83.31;98374.67;1669018;85;21202;-77
2020/12/15 07:00:37;;;;;;;122.53;54.75;;;;;;;-5.72;83.61;98376.32;1646307;85;21581;-80
2020/12/15 07:03:04;;;;;;;133.25;58.45;;;;;;;-5.63;83.48;98377.63;1646310;86;22188;-78
2020/12/15 07:05:31;;;;;;;150.65;61.55;;;;;;;-5.65;83.24;98369.03;1659787;86;21168;-80
2020/12/15 07:08:08;;;;;;;163.32;65.30;;;;;;;-5.61;82.63;98372.50;1659742;84;21189;-80
2020/12/15 07:10:37;;;;;;;143.02;62.75;;;;;;;-5.58;82.45;98372.65;1647063;86;21154;-79
2020/12/15 07:13:04;;;;;;;99.47;45.38;;;;;;;-5.52;82.89;98366.20;1659708;84;21197;-78
2020/12/15 07:15:30;;;;;;;136.18;60.85;;;;;;;-5.48;82.86;98362.22;1646439;86;21075;-79
2020/12/15 07:17:56;;;;;;;134.12;60.80;;;;;;;-5.52;82.56;98368.84;1659806;86;22135;-79
2020/12/15 07:20:23;;;;;;;148.80;66.47;;;;;;;-5.49;82.58;98370.31;1659736;86;21189;-77
2020/12/15 07:22:49;;;;;;;144.15;66.17;;;;;;;-5.43;81.97;98369.64;1659775;86;21221;-76
2020/12/15 07:25:15;;;;;;;144.32;65.75;;;;;;;-5.55;81.51;98367.05;1659717;86;21154;-79
2020/12/15 07:27:42;;;;;;;131.43;55.80;;;;;;;-5.52;81.77;98363.56;1659769;86;21210;-78
2020/12/15 07:30:16;;;;;;;138.85;65.57;;;;;;;-5.43;82.29;98366.50;1659705;86;21034;-79
2020/12/15 07:32:42;;;;;;;135.00;60.25;;;;;;;-5.35;82.45;98368.30;1646250;86;21189;-80
2020/12/15 07:35:22;;;;;;;143.62;65.57;;;;;;;-5.29;82.42;98367.63;1659725;84;21217;-80
2020/12/15 07:37:50;;;;;;;142.20;66.75;;;;;;;-5.35;81.83;98364.84;1659821;86;21133;-78
2020/12/15 07:40:19;;;;;;;168.00;70.70;;;;;;;-5.37;82.23;98372.94;1659307;85;21487;-78
2020/12/15 07:43:01;;;;;;;164.32;69.70;;;;;;;-5.29;82.41;98372.09;1659848;86;21956;-78
2020/12/15 07:45:29;;;;;;;156.65;65.08;;;;;;;-5.17;82.46;98369.39;1659716;86;21095;-79
2020/12/15 07:47:55;;;;;;;168.25;75.28;;;;;;;-5.09;82.16;98373.83;1659809;86;21192;-79
2020/12/15 07:50:28;;;;;;;139.12;61.85;;;;;;;-5.11;82.74;98373.50;1659768;86;20916;-78
2020/12/15 07:53:09;;;;;;;151.02;70.28;;;;;;;-4.97;83.26;98371.94;1669018;85;21170;-78
2020/12/15 07:55:35;;;;;;;127.55;57.38;;;;;;;-4.82;83.62;98364.92;1646665;86;21255;-79
2020/12/15 07:58:03;;;;;;;134.03;61.08;;;;;;;-4.71;83.33;98364.20;1659736;86;21245;-77
2020/12/15 08:00:29;;;;;;;126.33;55.78;;;;;;;-4.59;83.98;98361.00;1646271;86;21110;-77
2020/12/15 08:03:00;;;;;;;111.17;47.23;;;;;;;-4.50;82.85;98360.45;1659720;84;21565;-77
2020/12/15 08:05:26;;;;;;;96.72;48.10;;;;;;;-4.43;82.78;98368.02;1659796;86;21039;-79
2020/12/15 08:08:03;;;;;;;114.60;51.63;;;;;;;-4.38;83.04;98373.58;1659812;84;21322;-78
2020/12/15 08:10:31;;;;;;;103.97;46.70;;;;;;;-4.24;83.21;98365.39;1659644;84;21082;-79
2020/12/15 08:13:03;;;;;;;108.67;50.85;;;;;;;-4.13;83.14;98365.47;1668855;84;21199;-78
2020/12/15 08:15:32;;;;;;;94.15;39.70;;;;;;;-4.03;84.15;98376.63;1659752;86;21067;-78
2020/12/15 08:17:58;;;;;;;113.95;49.40;;;;;;;-3.90;83.18;98373.39;1659484;85;26719;-79
2020/12/15 08:20:29;;;;;;;92.85;45.70;;;;;;;-3.90;83.40;98364.13;1659819;86;20991;-80
2020/12/15 08:23:09;;;;;;;115.55;52.62;;;;;;;-3.83;83.41;98363.23;1659629;84;21169;-77
2020/12/15 08:25:44;;;;;;;119.25;57.50;;;;;;;-3.76;83.98;98362.84;1659654;86;21153;-77
2020/12/15 08:28:11;;;;;;;120.87;53.38;;;;;;;-3.62;84.08;98360.38;1668264;85;21134;-77
2020/12/15 08:30:37;;;;;;;171.02;78.97;;;;;;;-3.45;83.93;98360.52;1659727;86;21058;-80
2020/12/15 08:33:03;;;;;;;141.65;66.42;;;;;;;-3.35;84.25;98369.02;1659774;84;21893;-80
2020/12/15 08:35:29;;;;;;;119.53;58.42;;;;;;;-3.32;84.04;98354.60;1659623;86;20892;-77
2020/12/15 08:38:04;;;;;;;126.22;63.85;;;;;;;-3.15;83.51;98371.97;1659712;86;21621;-80
2020/12/15 08:40:30;;;;;;;143.60;77.12;;;;;;;-3.15;84.35;98377.27;1659832;86;21141;-76
2020/12/15 08:43:03;;;;;;;125.33;66.57;;;;;;;-3.01;84.19;98379.06;1659841;86;21058;-76
2020/12/15 08:45:30;;;;;;;157.97;80.62;;;;;;;-2.91;84.17;98379.59;1659885;86;21237;-81
2020/12/15 08:47:57;;;;;;;466.52;230.37;;;;;;;-2.80;84.67;98377.50;1659863;84;21859;-78
2020/12/15 08:50:30;;;;;;;426.05;216.78;;;;;;;-2.65;84.37;98376.47;1659881;84;21177;-79
2020/12/15 08:53:07;;;;;;;192.98;102.27;;;;;;;-2.58;83.96;98370.70;1646580;86;21210;-79
2020/12/15 08:55:35;;;;;;;116.33;63.55;;;;;;;-2.50;83.95;98372.94;1659758;85;21225;-77
2020/12/15 08:58:01;;;;;;;99.03;55.03;;;;;;;-2.42;84.29;98369.66;1659918;84;21158;-77
2020/12/15 09:00:28;;;;;;;135.40;86.05;;;;;;;-2.32;84.05;98369.34;1659760;84;21054;-79
2020/12/15 09:03:10;;;;;;;107.40;58.85;;;;;;;-2.19;84.18;98365.50;1659853;86;21173;-79
2020/12/15 09:05:55;;;;;;;87.27;44.00;;;;;;;-2.10;84.34;98362.22;1659742;85;21664;-77
2020/12/15 09:08:23;;;;;;;99.72;51.28;;;;;;;-2.04;84.23;98366.27;1659864;86;21126;-76
2020/12/15 09:10:50;;;;;;;98.70;49.40;;;;;;;-1.99;84.78;98353.22;1659823;86;21455;-79
2020/12/15 09:13:16;;;;;;;105.83;52.50;;;;;;;-1.84;84.71;98361.63;1659863;86;21166;-79
2020/12/15 09:15:48;;;;;;;79.97;40.83;;;;;;;-1.74;84.59;98350.15;1659771;84;21560;-79
2020/12/15 09:18:15;;;;;;;71.62;41.77;;;;;;;-1.63;84.30;98350.94;1659605;86;21193;-80
2020/12/15 09:20:41;;;;;;;116.08;53.60;;;;;;;-1.53;83.96;98351.95;1659846;86;21197;-79
2020/12/15 09:23:07;;;;;;;105.45;51.65;;;;;;;-1.50;84.49;98347.56;1646455;86;21301;-79
2020/12/15 09:25:33;;;;;;;92.65;45.95;;;;;;;-1.40;84.40;98351.20;1668977;85;21664;-76
2020/12/15 09:27:58;;;;;;;98.87;50.95;;;;;;;-1.29;84.26;98351.46;1659872;86;21322;-76
2020/12/15 09:30:24;;;;;;;92.35;47.03;;;;;;;-1.20;84.48;98346.80;1646309;86;20947;-77
2020/12/15 09:32:50;;;;;;;82.57;45.10;;;;;;;-1.11;84.21;98346.13;1659849;84;21312;-80
2020/12/15 09:35:16;;;;;;;82.55;44.33;;;;;;;-1.03;84.32;98346.79;1659824;84;21471;-76
2020/12/15 09:37:43;;;;;;;75.70;38.80;;;;;;;-0.94;84.37;98344.30;1659743;86;20979;-77
2020/12/15 09:40:09;;;;;;;99.55;47.23;;;;;;;-0.82;84.30;98347.20;1659820;86;21083;-80
2020/12/15 09:42:37;;;;;;;79.85;42.00;;;;;;;-0.71;84.54;98338.64;1646230;86;21150;-77
2020/12/15 09:45:06;;;;;;;84.95;43.45;;;;;;;-0.60;84.34;98338.08;1659877;86;21137;-80
2020/12/15 09:47:33;;;;;;;163.37;74.75;;;;;;;-0.47;84.41;98342.61;1659780;84;21586;-77
2020/12/15 09:50:01;;;;;;;95.40;49.18;;;;;;;-0.34;84.19;98335.98;1659797;86;21093;-77
2020/12/15 09:52:29;;;;;;;81.12;39.50;;;;;;;-0.22;84.14;98337.53;1659812;84;21108;-80
2020/12/15 09:54:55;;;;;;;92.90;48.05;;;;;;;-0.11;84.03;98333.44;1659911;84;21142;-80
2020/12/15 09:57:21;;;;;;;90.22;43.15;;;;;;;-0.04;83.88;98332.94;1659812;84;21154;-80
2020/12/15 09:59:49;;;;;;;108.32;55.33;;;;;;;0.08;83.89;98330.47;1669152;84;21225;-80
2020/12/15 10:02:15;;;;;;;99.92;56.35;;;;;;;0.16;83.34;98327.60;1659782;86;21598;-80
2020/12/15 10:04:40;;;;;;;88.03;48.92;;;;;;;0.26;83.25;98326.19;1659796;86;20967;-80
2020/12/15 10:07:06;;;;;;;77.40;37.93;;;;;;;0.36;83.09;98324.43;1659793;84;21114;-80
2020/12/15 10:09:32;;;;;;;88.87;49.15;;;;;;;0.48;83.18;98320.09;1659923;84;21032;-78
2020/12/15 10:12:00;;;;;;;109.35;57.67;;;;;;;0.55;83.01;98324.09;1646342;86;21793;-80
2020/12/15 10:14:26;;;;;;;119.47;59.90;;;;;;;0.63;83.20;98326.54;1659742;86;21168;-80
2020/12/15 10:16:52;;;;;;;129.50;59.80;;;;;;;0.73;83.25;98326.92;1659789;86;21039;-78
2020/12/15 10:19:18;;;;;;;91.70;47.45;;;;;;;0.79;83.15;98326.61;1646298;86;21236;-78
2020/12/15 10:21:44;;;;;;;110.63;53.70;;;;;;;0.87;83.25;98326.38;1659771;86;21050;-80
2020/12/15 10:24:10;;;;;;;71.87;38.92;;;;;;;0.93;83.13;98321.52;1646398;86;21218;-77
2020/12/15 10:26:36;;;;;;;100.53;46.25;;;;;;;1.01;83.13;98321.80;1659678;86;21079;-78
2020/12/15 10:29:02;;;;;;;270.73;115.50;;;;;;;1.10;83.18;98320.53;1659855;86;21602;-78
2020/12/15 10:31:28;;;;;;;150.25;68.78;;;;;;;1.20;82.84;98320.92;1659767;85;20995;-80
2020/12/15 10:33:55;;;;;;;80.07;40.40;;;;;;;1.30;82.62;98314.61;1646333;85;20956;-77
2020/12/15 10:36:26;;;;;;;91.35;43.80;;;;;;;1.39;82.21;98321.34;1659706;84;21626;-80
2020/12/15 10:38:53;;;;;;;74.80;40.60;;;;;;;1.49;81.99;98320.05;1668711;85;21618;-77
2020/12/15 10:41:28;;;;;;;75.25;38.13;;;;;;;1.58;82.28;98321.44;1646361;86;21074;-77
2020/12/15 10:43:54;;;;;;;90.12;47.20;;;;;;;1.66;82.35;98318.52;1659824;86;21150;-80
2020/12/15 10:46:28;;;;;;;106.05;51.77;;;;;;;1.74;82.23;98310.24;1636727;86;21130;-80
2020/12/15 10:48:55;;;;;;;61.75;29.82;;;;;;;1.86;81.48;98309.84;1659517;86;21644;-76
2020/12/15 10:51:22;;;;;;;68.62;36.30;;;;;;;1.95;81.30;98302.37;1659048;85;21513;-79
2020/12/15 10:53:50;;;;;;;64.58;32.67;;;;;;;2.10;81.34;98298.86;1658924;85;21158;-77
2020/12/15 10:56:15;;;;;;;60.88;32.73;;;;;;;2.16;80.20;98289.16;1658967;84;21084;-77
2020/12/15 10:58:41;;;;;;;62.38;38.58;;;;;;;2.22;80.83;98276.23;1659535;85;21054;-77
2020/12/15 11:01:10;;;;;;;58.42;32.33;;;;;;;2.20;80.54;98268.95;1659496;86;22242;-79
2020/12/15 11:03:38;;;;;;;59.38;32.08;;;;;;;2.30;80.97;98278.63;1659467;86;21148;-77
2020/12/15 11:06:04;;;;;;;53.05;28.83;;;;;;;2.34;80.41;98281.17;1659590;86;21180;-77
2020/12/15 11:08:30;;;;;;;42.78;24.23;;;;;;;2.35;81.04;98281.47;1659562;86;21448;-79
2020/12/15 11:10:56;;;;;;;46.70;25.43;;;;;;;2.40;81.01;98281.64;1636415;86;21156;-77
2020/12/15 11:13:23;;;;;;;54.70;31.37;;;;;;;2.47;80.68;98281.03;1636542;85;21268;-77
2020/12/15 11:15:49;;;;;;;54.95;29.07;;;;;;;2.54;80.77;98278.29;1659479;86;21477;-77
2020/12/15 11:18:16;;;;;;;50.25;27.05;;;;;;;2.63;80.78;98274.80;1659516;85;20993;-79
2020/12/15 11:20:41;;;;;;;54.60;27.55;;;;;;;2.65;79.97;98270.89;1659489;86;21211;-77